Strona główna
METAR-TAF:

METAR-TAF

Lotnisko :

Port lotniczy Caracas

Caracas, Wenezuela

Szerokość geograficzna: 10-36N, Długość geograficzna: 066-59W, wysokość: 43 m

Aktualna obserwacja pogody

Raport powstał 34 minut temu, godzina 04:02 UTC
Wiatr 8 kt od wschód
Temperatura
Ciśnienie 1016 hPa

METAR: SVMI 300402Z AUTO 09008KT NCD ///// Q1016

czas: 00:36 (04:36 UTC)

Prognoza

Raport powstał 6 godziny i 36 minut temu, godzina 22:00 UTC
Prognoza ważna od 30 godzina 00 UTC do 31 godzina 00 UTC
Wiatr 6 kt od wschodnio-północny wschód
Widzialność 10 km lub więcej
Mało chmury na wysokości 1600 ft
Rozproszone chmury na wysokości 1600 ft
Stopniowe zmiany
od 30 godzina 00 UTC do 30 godzina 04 UTC
Wiatr 3 kt od północny wschód
Rozproszone chmury na wysokości 1600 ft

TAF: SVMI 292200Z 3000/3100 07006KT 9999 FEW016 SCT016 TX30/19Z TN23/09Z BECMG 3000/3004 05003KT SCT016

Obserwacja i prognoza pogody dla ponad 4000 lotnisk (raport METAR i TAF).

Dostępne stacje oznaczono żółtymi i czerwonymi punktami na mapie.

Najedź kursorem aby zobaczyć nazwę stacji.

Kliknij aby zobaczyć obserwacje i prognozy pogody.

Aby zmienić mapę: kliknij na zielony przycisk z czarnym krzyżykiem, aby powiększyć; na zielony przycisk z myślnikiem, aby pomniejszyć; na zielone strzałki, aby przejść do map sąsiednich.


METAR-TAF: